sensor_id;sensor_type;location;lat;lon;timestamp;temperature;humidity
2327;DHT22;1174;51.588;7.328;2023-02-15T00:01:05;5.10;99.90
2327;DHT22;1174;51.588;7.328;2023-02-15T00:03:34;5.00;99.90
2327;DHT22;1174;51.588;7.328;2023-02-15T00:06:01;4.80;99.90
2327;DHT22;1174;51.588;7.328;2023-02-15T00:08:28;5.00;99.90
2327;DHT22;1174;51.588;7.328;2023-02-15T00:11:04;5.10;99.90
2327;DHT22;1174;51.588;7.328;2023-02-15T00:13:31;5.10;99.90
2327;DHT22;1174;51.588;7.328;2023-02-15T00:16:01;5.10;99.90
2327;DHT22;1174;51.588;7.328;2023-02-15T00:18:29;5.00;99.90
2327;DHT22;1174;51.588;7.328;2023-02-15T00:20:58;5.10;99.90
2327;DHT22;1174;51.588;7.328;2023-02-15T00:23:26;5.10;99.90
2327;DHT22;1174;51.588;7.328;2023-02-15T00:26:03;5.00;99.90
2327;DHT22;1174;51.588;7.328;2023-02-15T00:28:30;4.90;99.90
2327;DHT22;1174;51.588;7.328;2023-02-15T00:31:03;4.90;99.90
2327;DHT22;1174;51.588;7.328;2023-02-15T00:33:30;4.80;99.90
2327;DHT22;1174;51.588;7.328;2023-02-15T00:35:59;4.80;99.90
2327;DHT22;1174;51.588;7.328;2023-02-15T00:38:26;4.80;99.90
2327;DHT22;1174;51.588;7.328;2023-02-15T00:40:53;4.80;99.90
2327;DHT22;1174;51.588;7.328;2023-02-15T00:43:21;4.80;99.90
2327;DHT22;1174;51.588;7.328;2023-02-15T00:45:48;5.10;99.90
2327;DHT22;1174;51.588;7.328;2023-02-15T00:48:15;5.00;99.90
2327;DHT22;1174;51.588;7.328;2023-02-15T00:50:45;5.00;99.90
2327;DHT22;1174;51.588;7.328;2023-02-15T00:53:13;5.00;99.90
2327;DHT22;1174;51.588;7.328;2023-02-15T00:55:43;5.00;99.90
2327;DHT22;1174;51.588;7.328;2023-02-15T00:58:11;5.00;99.90
2327;DHT22;1174;51.588;7.328;2023-02-15T01:00:38;4.90;99.90
2327;DHT22;1174;51.588;7.328;2023-02-15T01:03:06;4.80;99.90
2327;DHT22;1174;51.588;7.328;2023-02-15T01:05:34;4.60;99.90
2327;DHT22;1174;51.588;7.328;2023-02-15T01:08:01;4.60;99.90
2327;DHT22;1174;51.588;7.328;2023-02-15T01:10:29;4.70;99.90
2327;DHT22;1174;51.588;7.328;2023-02-15T01:12:57;4.80;99.90
2327;DHT22;1174;51.588;7.328;2023-02-15T01:15:24;4.90;99.90
2327;DHT22;1174;51.588;7.328;2023-02-15T01:17:51;5.30;99.90
2327;DHT22;1174;51.588;7.328;2023-02-15T01:20:19;5.40;99.90
2327;DHT22;1174;51.588;7.328;2023-02-15T01:22:46;5.30;99.90
2327;DHT22;1174;51.588;7.328;2023-02-15T01:25:15;5.10;99.90
2327;DHT22;1174;51.588;7.328;2023-02-15T01:27:45;5.20;99.90
2327;DHT22;1174;51.588;7.328;2023-02-15T01:30:13;5.20;99.90
2327;DHT22;1174;51.588;7.328;2023-02-15T01:32:41;5.30;99.90
2327;DHT22;1174;51.588;7.328;2023-02-15T01:35:08;5.30;99.90
2327;DHT22;1174;51.588;7.328;2023-02-15T01:37:35;5.20;99.90
2327;DHT22;1174;51.588;7.328;2023-02-15T01:40:06;5.20;99.90
2327;DHT22;1174;51.588;7.328;2023-02-15T01:42:33;5.00;99.90
2327;DHT22;1174;51.588;7.328;2023-02-15T01:45:04;5.00;99.90
2327;DHT22;1174;51.588;7.328;2023-02-15T01:47:35;5.00;99.90
2327;DHT22;1174;51.588;7.328;2023-02-15T01:50:08;5.00;99.90
2327;DHT22;1174;51.588;7.328;2023-02-15T01:52:38;5.00;99.90
2327;DHT22;1174;51.588;7.328;2023-02-15T01:55:06;4.90;99.90
2327;DHT22;1174;51.588;7.328;2023-02-15T01:57:34;4.90;99.90
2327;DHT22;1174;51.588;7.328;2023-02-15T02:00:05;4.80;99.90
2327;DHT22;1174;51.588;7.328;2023-02-15T02:02:33;4.70;99.90
2327;DHT22;1174;51.588;7.328;2023-02-15T02:05:02;4.50;99.90
2327;DHT22;1174;51.588;7.328;2023-02-15T02:07:34;4.50;99.90
2327;DHT22;1174;51.588;7.328;2023-02-15T02:10:03;4.40;99.90
2327;DHT22;1174;51.588;7.328;2023-02-15T02:12:30;4.40;99.90
2327;DHT22;1174;51.588;7.328;2023-02-15T02:14:58;4.20;99.90
2327;DHT22;1174;51.588;7.328;2023-02-15T02:17:34;4.00;99.90
2327;DHT22;1174;51.588;7.328;2023-02-15T02:20:17;3.90;99.90
2327;DHT22;1174;51.588;7.328;2023-02-15T02:23:24;3.90;99.90
2327;DHT22;1174;51.588;7.328;2023-02-15T02:32:52;4.10;99.90
2327;DHT22;1174;51.588;7.328;2023-02-15T02:35:30;4.10;99.90
2327;DHT22;1174;51.588;7.328;2023-02-15T02:38:05;4.10;99.90
2327;DHT22;1174;51.588;7.328;2023-02-15T02:40:51;4.10;99.90
2327;DHT22;1174;51.588;7.328;2023-02-15T02:43:23;4.00;99.90
2327;DHT22;1174;51.588;7.328;2023-02-15T02:45:56;4.00;99.90
2327;DHT22;1174;51.588;7.328;2023-02-15T02:48:27;4.00;99.90
2327;DHT22;1174;51.588;7.328;2023-02-15T02:50:56;3.90;99.90
2327;DHT22;1174;51.588;7.328;2023-02-15T02:53:23;3.90;99.90
2327;DHT22;1174;51.588;7.328;2023-02-15T02:55:52;3.90;99.90
2327;DHT22;1174;51.588;7.328;2023-02-15T02:58:26;4.00;99.90
2327;DHT22;1174;51.588;7.328;2023-02-15T03:00:57;3.90;99.90
2327;DHT22;1174;51.588;7.328;2023-02-15T03:03:31;3.90;99.90
2327;DHT22;1174;51.588;7.328;2023-02-15T03:06:03;3.70;99.90
2327;DHT22;1174;51.588;7.328;2023-02-15T03:08:35;3.50;99.90
2327;DHT22;1174;51.588;7.328;2023-02-15T03:11:04;3.60;99.90
2327;DHT22;1174;51.588;7.328;2023-02-15T03:13:32;3.60;99.90
2327;DHT22;1174;51.588;7.328;2023-02-15T03:16:00;3.40;99.90
2327;DHT22;1174;51.588;7.328;2023-02-15T03:18:58;3.50;99.90
2327;DHT22;1174;51.588;7.328;2023-02-15T03:21:31;3.50;99.90
2327;DHT22;1174;51.588;7.328;2023-02-15T03:24:03;3.30;99.90
2327;DHT22;1174;51.588;7.328;2023-02-15T03:26:34;3.40;99.90
2327;DHT22;1174;51.588;7.328;2023-02-15T03:29:05;3.40;99.90
2327;DHT22;1174;51.588;7.328;2023-02-15T03:31:38;3.40;99.90
2327;DHT22;1174;51.588;7.328;2023-02-15T03:34:10;3.40;99.90
2327;DHT22;1174;51.588;7.328;2023-02-15T03:36:44;3.40;99.90
2327;DHT22;1174;51.588;7.328;2023-02-15T03:39:18;3.40;99.90
2327;DHT22;1174;51.588;7.328;2023-02-15T03:41:54;3.40;99.90
2327;DHT22;1174;51.588;7.328;2023-02-15T03:44:27;3.40;99.90
2327;DHT22;1174;51.588;7.328;2023-02-15T03:47:00;3.30;99.90
2327;DHT22;1174;51.588;7.328;2023-02-15T03:49:38;3.30;99.90
2327;DHT22;1174;51.588;7.328;2023-02-15T03:52:06;3.40;99.90
2327;DHT22;1174;51.588;7.328;2023-02-15T03:54:35;3.20;99.90
2327;DHT22;1174;51.588;7.328;2023-02-15T03:57:13;3.10;99.90
2327;DHT22;1174;51.588;7.328;2023-02-15T03:59:59;3.00;99.90
2327;DHT22;1174;51.588;7.328;2023-02-15T04:02:51;3.00;99.90
2327;DHT22;1174;51.588;7.328;2023-02-15T04:05:22;3.00;99.90
2327;DHT22;1174;51.588;7.328;2023-02-15T04:07:52;3.00;99.90
2327;DHT22;1174;51.588;7.328;2023-02-15T04:10:18;3.00;99.90
2327;DHT22;1174;51.588;7.328;2023-02-15T04:13:08;3.10;99.90
2327;DHT22;1174;51.588;7.328;2023-02-15T04:15:35;3.00;99.90
2327;DHT22;1174;51.588;7.328;2023-02-15T04:18:20;3.00;99.90
2327;DHT22;1174;51.588;7.328;2023-02-15T04:20:48;3.00;99.90
2327;DHT22;1174;51.588;7.328;2023-02-15T04:23:32;3.00;99.90
2327;DHT22;1174;51.588;7.328;2023-02-15T04:26:17;3.10;99.90
2327;DHT22;1174;51.588;7.328;2023-02-15T04:28:44;3.00;99.90
2327;DHT22;1174;51.588;7.328;2023-02-15T04:31:11;2.90;99.90
2327;DHT22;1174;51.588;7.328;2023-02-15T04:33:41;3.00;99.90
2327;DHT22;1174;51.588;7.328;2023-02-15T04:36:10;2.90;99.90
2327;DHT22;1174;51.588;7.328;2023-02-15T04:38:37;3.00;99.90
2327;DHT22;1174;51.588;7.328;2023-02-15T04:41:04;2.90;99.90
2327;DHT22;1174;51.588;7.328;2023-02-15T04:43:31;2.90;99.90
2327;DHT22;1174;51.588;7.328;2023-02-15T04:45:58;2.90;99.90
2327;DHT22;1174;51.588;7.328;2023-02-15T04:48:25;2.90;99.90
2327;DHT22;1174;51.588;7.328;2023-02-15T04:50:52;2.90;99.90
2327;DHT22;1174;51.588;7.328;2023-02-15T04:53:20;2.90;99.90
2327;DHT22;1174;51.588;7.328;2023-02-15T04:55:48;3.00;99.90
2327;DHT22;1174;51.588;7.328;2023-02-15T04:58:14;3.10;99.90
2327;DHT22;1174;51.588;7.328;2023-02-15T05:00:41;3.00;99.90
2327;DHT22;1174;51.588;7.328;2023-02-15T05:03:08;2.80;99.90
2327;DHT22;1174;51.588;7.328;2023-02-15T05:05:35;2.70;99.90
2327;DHT22;1174;51.588;7.328;2023-02-15T05:08:02;2.70;99.90
2327;DHT22;1174;51.588;7.328;2023-02-15T05:10:31;2.70;99.90
2327;DHT22;1174;51.588;7.328;2023-02-15T05:12:58;2.60;99.90
2327;DHT22;1174;51.588;7.328;2023-02-15T05:15:25;2.50;99.90
2327;DHT22;1174;51.588;7.328;2023-02-15T05:17:52;2.50;99.90
2327;DHT22;1174;51.588;7.328;2023-02-15T05:20:19;2.60;99.90
2327;DHT22;1174;51.588;7.328;2023-02-15T05:22:46;2.50;99.90
2327;DHT22;1174;51.588;7.328;2023-02-15T05:25:12;2.50;99.90
2327;DHT22;1174;51.588;7.328;2023-02-15T05:27:58;2.60;99.90
2327;DHT22;1174;51.588;7.328;2023-02-15T05:30:42;2.60;99.90
2327;DHT22;1174;51.588;7.328;2023-02-15T05:33:09;2.50;99.90
2327;DHT22;1174;51.588;7.328;2023-02-15T05:35:36;2.50;99.90
2327;DHT22;1174;51.588;7.328;2023-02-15T05:38:06;2.40;99.90
2327;DHT22;1174;51.588;7.328;2023-02-15T05:40:33;2.50;99.90
2327;DHT22;1174;51.588;7.328;2023-02-15T05:43:05;2.50;99.90
2327;DHT22;1174;51.588;7.328;2023-02-15T05:45:32;2.40;99.90
2327;DHT22;1174;51.588;7.328;2023-02-15T05:47:59;2.40;99.90
2327;DHT22;1174;51.588;7.328;2023-02-15T05:50:26;2.40;99.90
2327;DHT22;1174;51.588;7.328;2023-02-15T05:52:53;2.40;99.90
2327;DHT22;1174;51.588;7.328;2023-02-15T05:55:23;2.50;99.90
2327;DHT22;1174;51.588;7.328;2023-02-15T05:57:52;2.50;99.90
2327;DHT22;1174;51.588;7.328;2023-02-15T06:00:22;2.50;99.90
2327;DHT22;1174;51.588;7.328;2023-02-15T06:02:49;2.50;99.90
2327;DHT22;1174;51.588;7.328;2023-02-15T06:05:16;2.50;99.90
2327;DHT22;1174;51.588;7.328;2023-02-15T06:07:43;2.40;99.90
2327;DHT22;1174;51.588;7.328;2023-02-15T06:10:11;2.30;99.90
2327;DHT22;1174;51.588;7.328;2023-02-15T06:12:38;2.30;99.90
2327;DHT22;1174;51.588;7.328;2023-02-15T06:15:05;2.30;99.90
2327;DHT22;1174;51.588;7.328;2023-02-15T06:17:37;2.40;99.90
2327;DHT22;1174;51.588;7.328;2023-02-15T06:20:05;2.40;99.90
2327;DHT22;1174;51.588;7.328;2023-02-15T06:22:32;2.40;99.90
2327;DHT22;1174;51.588;7.328;2023-02-15T06:24:59;2.40;99.90
2327;DHT22;1174;51.588;7.328;2023-02-15T06:27:26;2.40;99.90
2327;DHT22;1174;51.588;7.328;2023-02-15T06:29:53;2.40;99.90
2327;DHT22;1174;51.588;7.328;2023-02-15T06:32:20;2.40;99.90
2327;DHT22;1174;51.588;7.328;2023-02-15T06:34:48;2.40;99.90
2327;DHT22;1174;51.588;7.328;2023-02-15T06:37:15;2.40;99.90
2327;DHT22;1174;51.588;7.328;2023-02-15T06:39:42;2.30;99.90
2327;DHT22;1174;51.588;7.328;2023-02-15T06:42:09;2.30;99.90
2327;DHT22;1174;51.588;7.328;2023-02-15T06:44:36;2.30;99.90
2327;DHT22;1174;51.588;7.328;2023-02-15T06:47:03;2.50;99.90
2327;DHT22;1174;51.588;7.328;2023-02-15T06:49:30;2.50;99.90
2327;DHT22;1174;51.588;7.328;2023-02-15T06:51:58;2.50;99.90
2327;DHT22;1174;51.588;7.328;2023-02-15T06:54:25;2.50;99.90
2327;DHT22;1174;51.588;7.328;2023-02-15T06:56:52;2.60;99.90
2327;DHT22;1174;51.588;7.328;2023-02-15T06:59:20;2.70;99.90
2327;DHT22;1174;51.588;7.328;2023-02-15T07:01:47;2.60;99.90
2327;DHT22;1174;51.588;7.328;2023-02-15T07:04:14;2.50;99.90
2327;DHT22;1174;51.588;7.328;2023-02-15T07:06:41;2.60;99.90
2327;DHT22;1174;51.588;7.328;2023-02-15T07:09:10;2.50;99.90
2327;DHT22;1174;51.588;7.328;2023-02-15T07:11:37;2.50;99.90
2327;DHT22;1174;51.588;7.328;2023-02-15T07:14:21;2.60;99.90
2327;DHT22;1174;51.588;7.328;2023-02-15T07:16:48;2.70;99.90
2327;DHT22;1174;51.588;7.328;2023-02-15T07:19:15;2.80;99.90
2327;DHT22;1174;51.588;7.328;2023-02-15T07:21:44;2.70;99.90
2327;DHT22;1174;51.588;7.328;2023-02-15T07:24:13;2.90;99.90
2327;DHT22;1174;51.588;7.328;2023-02-15T07:26:40;3.00;99.90
2327;DHT22;1174;51.588;7.328;2023-02-15T07:29:07;3.10;99.90
2327;DHT22;1174;51.588;7.328;2023-02-15T07:31:34;3.30;99.90
2327;DHT22;1174;51.588;7.328;2023-02-15T07:34:05;3.50;99.90
2327;DHT22;1174;51.588;7.328;2023-02-15T07:36:31;3.70;99.90
2327;DHT22;1174;51.588;7.328;2023-02-15T07:38:58;3.90;99.90
2327;DHT22;1174;51.588;7.328;2023-02-15T07:41:27;4.30;99.90
2327;DHT22;1174;51.588;7.328;2023-02-15T07:43:54;4.40;99.90
2327;DHT22;1174;51.588;7.328;2023-02-15T07:46:21;4.50;99.90
2327;DHT22;1174;51.588;7.328;2023-02-15T07:48:48;4.30;99.90
2327;DHT22;1174;51.588;7.328;2023-02-15T07:51:15;4.20;99.90
2327;DHT22;1174;51.588;7.328;2023-02-15T07:53:42;4.30;99.90
2327;DHT22;1174;51.588;7.328;2023-02-15T07:56:11;4.20;99.90
2327;DHT22;1174;51.588;7.328;2023-02-15T07:58:42;4.30;99.90
2327;DHT22;1174;51.588;7.328;2023-02-15T08:01:19;4.40;99.90
2327;DHT22;1174;51.588;7.328;2023-02-15T08:03:50;4.70;99.90
2327;DHT22;1174;51.588;7.328;2023-02-15T08:06:17;4.80;99.90
2327;DHT22;1174;51.588;7.328;2023-02-15T08:08:44;4.90;99.90
2327;DHT22;1174;51.588;7.328;2023-02-15T08:11:18;5.00;99.90
2327;DHT22;1174;51.588;7.328;2023-02-15T08:14:04;5.20;99.90
2327;DHT22;1174;51.588;7.328;2023-02-15T08:16:34;5.30;99.90
2327;DHT22;1174;51.588;7.328;2023-02-15T08:19:02;5.40;99.90
2327;DHT22;1174;51.588;7.328;2023-02-15T08:21:31;5.80;99.90
2327;DHT22;1174;51.588;7.328;2023-02-15T08:23:58;6.10;99.90
2327;DHT22;1174;51.588;7.328;2023-02-15T08:26:27;6.50;99.90
2327;DHT22;1174;51.588;7.328;2023-02-15T08:28:55;7.00;99.90
2327;DHT22;1174;51.588;7.328;2023-02-15T08:31:23;7.50;99.90
2327;DHT22;1174;51.588;7.328;2023-02-15T08:33:53;8.10;99.90
2327;DHT22;1174;51.588;7.328;2023-02-15T08:36:22;8.70;99.90
2327;DHT22;1174;51.588;7.328;2023-02-15T08:38:50;9.30;99.90
2327;DHT22;1174;51.588;7.328;2023-02-15T08:41:18;10.00;99.90
2327;DHT22;1174;51.588;7.328;2023-02-15T08:43:47;10.70;99.90
2327;DHT22;1174;51.588;7.328;2023-02-15T08:46:15;11.40;99.90
2327;DHT22;1174;51.588;7.328;2023-02-15T08:48:44;12.00;99.90
2327;DHT22;1174;51.588;7.328;2023-02-15T08:51:13;12.10;99.90
2327;DHT22;1174;51.588;7.328;2023-02-15T08:53:41;12.10;99.90
2327;DHT22;1174;51.588;7.328;2023-02-15T08:56:09;11.80;99.90
2327;DHT22;1174;51.588;7.328;2023-02-15T08:58:38;11.10;99.90
2327;DHT22;1174;51.588;7.328;2023-02-15T09:01:09;10.90;99.90
2327;DHT22;1174;51.588;7.328;2023-02-15T09:03:36;10.70;99.90
2327;DHT22;1174;51.588;7.328;2023-02-15T09:06:05;10.60;99.90
2327;DHT22;1174;51.588;7.328;2023-02-15T09:08:33;11.10;99.90
2327;DHT22;1174;51.588;7.328;2023-02-15T09:11:08;11.50;99.90
2327;DHT22;1174;51.588;7.328;2023-02-15T09:13:36;12.30;99.90
2327;DHT22;1174;51.588;7.328;2023-02-15T09:16:05;13.50;99.90
2327;DHT22;1174;51.588;7.328;2023-02-15T09:18:33;14.40;99.90
2327;DHT22;1174;51.588;7.328;2023-02-15T09:21:07;15.20;99.90
2327;DHT22;1174;51.588;7.328;2023-02-15T09:23:34;15.90;99.90
2327;DHT22;1174;51.588;7.328;2023-02-15T09:26:03;16.30;99.90
2327;DHT22;1174;51.588;7.328;2023-02-15T09:28:30;15.80;99.90
2327;DHT22;1174;51.588;7.328;2023-02-15T09:31:05;15.20;99.90
2327;DHT22;1174;51.588;7.328;2023-02-15T09:33:33;14.70;99.90
2327;DHT22;1174;51.588;7.328;2023-02-15T09:36:00;14.40;99.90
2327;DHT22;1174;51.588;7.328;2023-02-15T09:38:28;14.20;99.90
2327;DHT22;1174;51.588;7.328;2023-02-15T09:41:09;14.30;99.90
2327;DHT22;1174;51.588;7.328;2023-02-15T09:43:46;14.80;99.90
2327;DHT22;1174;51.588;7.328;2023-02-15T09:46:33;16.00;99.90
2327;DHT22;1174;51.588;7.328;2023-02-15T09:49:06;16.10;99.50
2327;DHT22;1174;51.588;7.328;2023-02-15T09:54:52;17.70;98.40
2327;DHT22;1174;51.588;7.328;2023-02-15T09:57:29;18.40;97.50
2327;DHT22;1174;51.588;7.328;2023-02-15T10:00:07;18.60;95.80
2327;DHT22;1174;51.588;7.328;2023-02-15T10:02:48;19.00;94.40
2327;DHT22;1174;51.588;7.328;2023-02-15T10:05:26;19.20;93.60
2327;DHT22;1174;51.588;7.328;2023-02-15T10:10:55;21.30;90.60
2327;DHT22;1174;51.588;7.328;2023-02-15T10:13:52;21.70;87.20
2327;DHT22;1174;51.588;7.328;2023-02-15T10:16:25;21.10;86.30
2327;DHT22;1174;51.588;7.328;2023-02-15T10:19:07;21.30;85.40
2327;DHT22;1174;51.588;7.328;2023-02-15T10:21:47;20.90;81.90
2327;DHT22;1174;51.588;7.328;2023-02-15T10:24:42;21.30;84.60
2327;DHT22;1174;51.588;7.328;2023-02-15T10:27:15;22.10;79.20
2327;DHT22;1174;51.588;7.328;2023-02-15T10:29:55;22.20;78.70
2327;DHT22;1174;51.588;7.328;2023-02-15T10:32:27;22.50;78.00
2327;DHT22;1174;51.588;7.328;2023-02-15T10:35:00;22.80;76.30
2327;DHT22;1174;51.588;7.328;2023-02-15T10:37:54;23.00;72.50
2327;DHT22;1174;51.588;7.328;2023-02-15T10:40:32;23.00;70.90
2327;DHT22;1174;51.588;7.328;2023-02-15T10:43:18;23.80;69.70
2327;DHT22;1174;51.588;7.328;2023-02-15T10:45:54;23.80;67.90
2327;DHT22;1174;51.588;7.328;2023-02-15T10:48:36;24.10;68.50
2327;DHT22;1174;51.588;7.328;2023-02-15T10:51:08;23.90;66.80
2327;DHT22;1174;51.588;7.328;2023-02-15T10:53:52;23.10;68.30
2327;DHT22;1174;51.588;7.328;2023-02-15T10:56:33;22.90;69.90
2327;DHT22;1174;51.588;7.328;2023-02-15T10:59:23;23.10;69.60
2327;DHT22;1174;51.588;7.328;2023-02-15T11:01:57;22.80;67.70
2327;DHT22;1174;51.588;7.328;2023-02-15T11:04:48;22.80;69.30
2327;DHT22;1174;51.588;7.328;2023-02-15T11:07:21;22.80;69.90
2327;DHT22;1174;51.588;7.328;2023-02-15T11:09:51;23.00;69.90
2327;DHT22;1174;51.588;7.328;2023-02-15T11:12:23;23.20;68.20
2327;DHT22;1174;51.588;7.328;2023-02-15T11:14:58;22.90;69.20
2327;DHT22;1174;51.588;7.328;2023-02-15T11:17:35;22.10;70.40
2327;DHT22;1174;51.588;7.328;2023-02-15T11:20:08;22.70;70.50
2327;DHT22;1174;51.588;7.328;2023-02-15T11:22:36;23.30;67.20
2327;DHT22;1174;51.588;7.328;2023-02-15T11:25:16;23.60;65.50
2327;DHT22;1174;51.588;7.328;2023-02-15T11:27:46;23.70;65.40
2327;DHT22;1174;51.588;7.328;2023-02-15T11:30:23;23.50;63.90
2327;DHT22;1174;51.588;7.328;2023-02-15T11:32:52;23.40;64.70
2327;DHT22;1174;51.588;7.328;2023-02-15T11:35:26;23.30;65.50
2327;DHT22;1174;51.588;7.328;2023-02-15T11:37:59;22.90;64.20
2327;DHT22;1174;51.588;7.328;2023-02-15T11:40:30;23.00;64.10
2327;DHT22;1174;51.588;7.328;2023-02-15T11:43:03;23.50;62.80
2327;DHT22;1174;51.588;7.328;2023-02-15T11:45:33;24.10;61.90
2327;DHT22;1174;51.588;7.328;2023-02-15T11:48:02;24.10;61.10
2327;DHT22;1174;51.588;7.328;2023-02-15T11:50:35;24.70;59.80
2327;DHT22;1174;51.588;7.328;2023-02-15T11:53:05;24.80;59.30
2327;DHT22;1174;51.588;7.328;2023-02-15T11:55:33;25.30;58.90
2327;DHT22;1174;51.588;7.328;2023-02-15T11:58:04;26.00;57.60
2327;DHT22;1174;51.588;7.328;2023-02-15T12:00:41;25.80;58.00
2327;DHT22;1174;51.588;7.328;2023-02-15T12:03:15;25.80;56.00
2327;DHT22;1174;51.588;7.328;2023-02-15T12:05:46;25.70;55.30
2327;DHT22;1174;51.588;7.328;2023-02-15T12:08:16;26.00;54.70
2327;DHT22;1174;51.588;7.328;2023-02-15T12:10:52;26.40;53.80
2327;DHT22;1174;51.588;7.328;2023-02-15T12:13:20;26.40;54.80
2327;DHT22;1174;51.588;7.328;2023-02-15T12:15:53;26.80;52.80
2327;DHT22;1174;51.588;7.328;2023-02-15T12:18:33;27.00;53.30
2327;DHT22;1174;51.588;7.328;2023-02-15T12:21:03;27.10;52.30
2327;DHT22;1174;51.588;7.328;2023-02-15T12:23:33;27.00;51.60
2327;DHT22;1174;51.588;7.328;2023-02-15T12:26:03;27.00;51.00
2327;DHT22;1174;51.588;7.328;2023-02-15T12:28:33;27.00;52.00
2327;DHT22;1174;51.588;7.328;2023-02-15T12:31:07;26.60;50.90
2327;DHT22;1174;51.588;7.328;2023-02-15T12:33:35;26.50;49.80
2327;DHT22;1174;51.588;7.328;2023-02-15T12:36:09;26.40;49.50
2327;DHT22;1174;51.588;7.328;2023-02-15T12:38:37;26.00;48.20
2327;DHT22;1174;51.588;7.328;2023-02-15T12:41:22;25.60;49.30
2327;DHT22;1174;51.588;7.328;2023-02-15T12:44:03;25.90;48.00
2327;DHT22;1174;51.588;7.328;2023-02-15T12:46:32;25.60;47.80
2327;DHT22;1174;51.588;7.328;2023-02-15T12:49:18;25.20;49.30
2327;DHT22;1174;51.588;7.328;2023-02-15T12:51:48;25.20;48.00
2327;DHT22;1174;51.588;7.328;2023-02-15T12:54:29;24.70;48.20
2327;DHT22;1174;51.588;7.328;2023-02-15T12:56:56;24.40;47.50
2327;DHT22;1174;51.588;7.328;2023-02-15T12:59:24;24.80;48.90
2327;DHT22;1174;51.588;7.328;2023-02-15T13:01:53;25.10;47.80
2327;DHT22;1174;51.588;7.328;2023-02-15T13:04:25;25.10;48.10
2327;DHT22;1174;51.588;7.328;2023-02-15T13:06:54;25.30;47.80
2327;DHT22;1174;51.588;7.328;2023-02-15T13:09:38;25.90;48.60
2327;DHT22;1174;51.588;7.328;2023-02-15T13:12:15;26.30;47.30
2327;DHT22;1174;51.588;7.328;2023-02-15T13:14:45;26.10;46.80
2327;DHT22;1174;51.588;7.328;2023-02-15T13:17:15;25.90;47.80
2327;DHT22;1174;51.588;7.328;2023-02-15T13:19:47;26.30;46.60
2327;DHT22;1174;51.588;7.328;2023-02-15T13:22:21;26.40;46.10
2327;DHT22;1174;51.588;7.328;2023-02-15T13:24:53;26.00;46.10
2327;DHT22;1174;51.588;7.328;2023-02-15T13:27:38;26.20;47.50
2327;DHT22;1174;51.588;7.328;2023-02-15T13:30:17;26.40;46.40
2327;DHT22;1174;51.588;7.328;2023-02-15T13:32:49;26.40;46.20
2327;DHT22;1174;51.588;7.328;2023-02-15T13:35:18;26.30;45.30
2327;DHT22;1174;51.588;7.328;2023-02-15T13:37:59;25.30;46.50
2327;DHT22;1174;51.588;7.328;2023-02-15T13:40:32;25.50;47.30
2327;DHT22;1174;51.588;7.328;2023-02-15T13:43:04;25.30;45.50
2327;DHT22;1174;51.588;7.328;2023-02-15T13:45:52;25.00;46.10
2327;DHT22;1174;51.588;7.328;2023-02-15T13:48:33;24.90;45.50
2327;DHT22;1174;51.588;7.328;2023-02-15T13:51:12;25.10;46.70
2327;DHT22;1174;51.588;7.328;2023-02-15T13:53:56;25.80;46.50
2327;DHT22;1174;51.588;7.328;2023-02-15T13:56:35;26.60;45.70
2327;DHT22;1174;51.588;7.328;2023-02-15T13:59:25;26.50;44.60
2327;DHT22;1174;51.588;7.328;2023-02-15T14:01:57;25.90;45.10
2327;DHT22;1174;51.588;7.328;2023-02-15T14:04:53;26.00;44.10
2327;DHT22;1174;51.588;7.328;2023-02-15T14:07:39;25.30;44.60
2327;DHT22;1174;51.588;7.328;2023-02-15T14:10:31;24.70;45.60
2327;DHT22;1174;51.588;7.328;2023-02-15T14:16:13;25.50;45.90
2327;DHT22;1174;51.588;7.328;2023-02-15T14:18:46;25.70;44.20
2327;DHT22;1174;51.588;7.328;2023-02-15T14:21:27;25.10;43.90
2327;DHT22;1174;51.588;7.328;2023-02-15T14:24:08;25.00;44.50
2327;DHT22;1174;51.588;7.328;2023-02-15T14:26:45;25.20;45.90
2327;DHT22;1174;51.588;7.328;2023-02-15T14:29:23;26.10;45.50
2327;DHT22;1174;51.588;7.328;2023-02-15T14:31:57;26.40;43.80
2327;DHT22;1174;51.588;7.328;2023-02-15T14:34:36;26.00;44.20
2327;DHT22;1174;51.588;7.328;2023-02-15T14:37:11;26.00;44.10
2327;DHT22;1174;51.588;7.328;2023-02-15T14:39:44;25.90;44.00
2327;DHT22;1174;51.588;7.328;2023-02-15T14:42:36;26.20;43.40
2327;DHT22;1174;51.588;7.328;2023-02-15T14:45:17;26.50;44.50
2327;DHT22;1174;51.588;7.328;2023-02-15T14:47:51;26.30;43.40
2327;DHT22;1174;51.588;7.328;2023-02-15T14:50:41;25.40;44.00
2327;DHT22;1174;51.588;7.328;2023-02-15T14:53:38;24.90;44.60
2327;DHT22;1174;51.588;7.328;2023-02-15T14:56:32;24.10;45.10
2327;DHT22;1174;51.588;7.328;2023-02-15T14:59:14;23.50;44.60
2327;DHT22;1174;51.588;7.328;2023-02-15T15:02:03;22.60;45.80
2327;DHT22;1174;51.588;7.328;2023-02-15T15:04:34;22.20;46.40
2327;DHT22;1174;51.588;7.328;2023-02-15T15:07:12;22.30;47.30
2327;DHT22;1174;51.588;7.328;2023-02-15T15:09:43;22.10;47.80
2327;DHT22;1174;51.588;7.328;2023-02-15T15:12:15;21.90;47.40
2327;DHT22;1174;51.588;7.328;2023-02-15T15:15:03;21.70;47.20
2327;DHT22;1174;51.588;7.328;2023-02-15T15:17:57;21.10;48.60
2327;DHT22;1174;51.588;7.328;2023-02-15T15:20:44;20.90;48.90
2327;DHT22;1174;51.588;7.328;2023-02-15T15:23:39;20.30;48.40
2327;DHT22;1174;51.588;7.328;2023-02-15T15:26:30;20.00;49.50
2327;DHT22;1174;51.588;7.328;2023-02-15T15:29:03;19.90;49.10
2327;DHT22;1174;51.588;7.328;2023-02-15T15:31:48;19.80;50.50
2327;DHT22;1174;51.588;7.328;2023-02-15T15:37:46;19.50;51.00
2327;DHT22;1174;51.588;7.328;2023-02-15T15:40:48;19.40;50.50
2327;DHT22;1174;51.588;7.328;2023-02-15T15:47:13;19.10;52.00
2327;DHT22;1174;51.588;7.328;2023-02-15T15:49:47;18.90;52.80
2327;DHT22;1174;51.588;7.328;2023-02-15T15:52:16;18.80;53.00
2327;DHT22;1174;51.588;7.328;2023-02-15T15:54:44;18.60;53.50
2327;DHT22;1174;51.588;7.328;2023-02-15T15:57:27;18.40;53.90
2327;DHT22;1174;51.588;7.328;2023-02-15T15:59:57;18.30;54.90
2327;DHT22;1174;51.588;7.328;2023-02-15T16:02:26;18.10;54.60
2327;DHT22;1174;51.588;7.328;2023-02-15T16:05:05;18.00;54.90
2327;DHT22;1174;51.588;7.328;2023-02-15T16:07:33;17.80;55.70
2327;DHT22;1174;51.588;7.328;2023-02-15T16:10:02;17.70;56.00
2327;DHT22;1174;51.588;7.328;2023-02-15T16:12:32;17.30;56.80
2327;DHT22;1174;51.588;7.328;2023-02-15T16:15:05;17.00;56.80
2327;DHT22;1174;51.588;7.328;2023-02-15T16:17:41;16.80;58.00
2327;DHT22;1174;51.588;7.328;2023-02-15T16:20:16;16.70;58.30
2327;DHT22;1174;51.588;7.328;2023-02-15T16:22:45;16.60;58.90
2327;DHT22;1174;51.588;7.328;2023-02-15T16:25:30;16.40;59.30
2327;DHT22;1174;51.588;7.328;2023-02-15T16:28:10;16.30;59.60
2327;DHT22;1174;51.588;7.328;2023-02-15T16:30:41;16.10;60.10
2327;DHT22;1174;51.588;7.328;2023-02-15T16:33:11;16.00;60.90
2327;DHT22;1174;51.588;7.328;2023-02-15T16:35:40;15.70;62.50
2327;DHT22;1174;51.588;7.328;2023-02-15T16:38:09;15.60;63.60
2327;DHT22;1174;51.588;7.328;2023-02-15T16:40:49;15.50;62.50
2327;DHT22;1174;51.588;7.328;2023-02-15T16:43:23;15.30;64.40
2327;DHT22;1174;51.588;7.328;2023-02-15T16:45:57;15.20;64.00
2327;DHT22;1174;51.588;7.328;2023-02-15T16:48:26;14.90;63.90
2327;DHT22;1174;51.588;7.328;2023-02-15T16:50:56;14.70;65.10
2327;DHT22;1174;51.588;7.328;2023-02-15T16:53:25;14.50;65.70
2327;DHT22;1174;51.588;7.328;2023-02-15T16:55:55;14.50;65.30
2327;DHT22;1174;51.588;7.328;2023-02-15T16:58:31;14.30;65.80
2327;DHT22;1174;51.588;7.328;2023-02-15T17:01:09;14.20;66.70
2327;DHT22;1174;51.588;7.328;2023-02-15T17:03:38;14.00;67.50
2327;DHT22;1174;51.588;7.328;2023-02-15T17:06:20;13.80;68.70
2327;DHT22;1174;51.588;7.328;2023-02-15T17:08:47;13.60;69.70